Historyczne dane pomiarowe

Dodano dane terminowe – wersja testowa.

Dane z okresu 1951-2019

Wersja bazy: 1.34 [2019-03-16, lista zmian], aktualizacja planowana na 2019-04-15

Dane meteo z obszaru Polski uzyskane na podstawie danych udostępnionych przez Instytut Meteorologii i Gospodarki Wodnej – Państwowy Instytut Badawczy.

 

Wybierz Datę:    

       

TemperaturaWilgotnośćWiatrCiśnienieOpadyŚniegCzas trwania zjawisk
 Stacja t tx tn tng RH VA  wxwx mslp ppp RRR   cm mm wxwxwxwxwxwxwx
1963-02-14 -4.3 -2.9 -7.3- 90.8- 8.0 1.3---- 0.1-- 40---------
1963-02-15 -4.2 -1.0 -6.0- 79.8- 7.3 0.7---- 0.0-- 40---------
1963-02-16 -5.5 -3.4 -6.8- 87.8- 8.0 2.7---- 0.0-- 39---------
1963-02-17 -4.9 -3.2 -7.4- 89.3- 8.0 4.3---- 3.4-- 39---------
1963-02-18 -5.3 -2.9 -6.8- 91.5- 8.0 1.0---- 2.1-- 41---------
1963-02-19 -7.1 -3.1-11.7- 87.0- 7.7 1.3---- 3.3-- 43---------
1963-02-20 -4.5 -3.0 -8.1- 91.8- 8.0 3.3---- 0.1-- 46---------
1963-02-21 -7.6 -4.4-10.0- 86.0- 6.7 5.0---- 0.7-- 46---------
1963-02-22-11.3 -3.2-16.6- 85.5- 8.0 2.0---- 0.0-- 46---------
1963-02-23-16.7 -5.4-22.6- 74.3- 0.3 0.7---- 0.0-- 46---------
1963-02-24-12.8 -4.8-21.1- 82.0- 3.0 1.0---- 0.0-- 46---------
1963-02-25 -5.6 -2.6-15.7- 86.8- 7.7 4.3---- 2.3-- 45---------
1963-02-26-16.4 -2.5-18.5- 59.5- 0.0 5.0---- 0.0-- 45---------
1963-02-27-19.2 -8.8-28.6- 73.8- 3.7 1.0---- 0.0-- 44---------
1963-02-28-15.7 -6.8-27.1- 80.3- 1.0 1.0---- 0.0-- 44---------
1963-03-01 -9.4 -4.7-15.9- 60.5- 5.7 3.7---- 0.0-- 44---------
1963-03-02 -6.2 -2.9-12.9- 90.3- 6.0 4.7---- 0.0-- 44---------
1963-03-03 -3.4 -1.0 -9.0- 93.3- 8.0 4.0---- 1.2-- 44---------
1963-03-04 -2.7 0.0 -4.3- 85.5- 8.0 0.7---- 0.6-- 46---------
1963-03-05 -1.0 1.2 -4.2- 84.0- 8.0 1.3---- 0.0-- 46---------
1963-03-06 0.7 3.0 -5.6- 70.8- 8.0 2.7---- 1.6-- 43---------
1963-03-07 3.4 4.6 2.0- 81.8- 8.0 7.7---- 1.5-- 39---------
1963-03-08 2.2 4.1 1.4- 95.5- 8.0 7.0---- 0.0-- 35---------
1963-03-09 -4.6 1.6 -5.6- 74.8- 6.0 3.7---- 0.0-- 28---------
1963-03-10 -7.9 -3.9-11.6- 56.8- 2.7 4.0---- 0.0-- 28---------
1963-03-11 -4.2 -1.0-12.4- 91.8- 6.0 1.7---- 0.0-- 28---------
1963-03-12 1.8 4.6 -1.0- 92.5- 8.0 1.3---- 1.4-- 28---------
1963-03-13 1.6 4.6 -0.1- 92.8- 8.0 3.7---- 1.4-- 23---------
1963-03-14 -7.7 1.0 -8.9- 61.5- 3.3 13.3---- 0.0-- 20---------
1963-03-15-11.4 -6.3-15.8- 56.0- 0.0 5.0---- 0.0-- 20---------
139.0 ms

 

Źródłem pochodzenia danych jest Instytut Meteorologii i Gospodarki Wodnej – Państwowy Instytut Badawczy. Dane Instytutu Meteorologii i Gospodarki Wodnej – Państwowego Instytutu Badawczego zostały przetworzone.

Dane źródłowe można odnaleźć na stronie https://dane.imgw.pl